sensor_id;sensor_type;location;lat;lon;timestamp;P1;durP1;ratioP1;P2;durP2;ratioP2
10511;SDS011;5304;48.604;2.096;2023-07-13T04:10:20;4.10;;;1.90;;
10511;SDS011;5304;48.604;2.096;2023-07-13T04:13:05;2.93;;;1.90;;
10511;SDS011;5304;48.604;2.096;2023-07-13T04:15:49;6.27;;;2.10;;
10511;SDS011;5304;48.604;2.096;2023-07-13T04:18:34;5.40;;;1.90;;
10511;SDS011;5304;48.604;2.096;2023-07-13T04:21:19;5.80;;;2.00;;
10511;SDS011;5304;48.604;2.096;2023-07-13T04:24:04;3.67;;;2.13;;
10511;SDS011;5304;48.604;2.096;2023-07-13T04:26:48;4.30;;;2.03;;
10511;SDS011;5304;48.604;2.096;2023-07-13T04:29:33;4.77;;;1.77;;
10511;SDS011;5304;48.604;2.096;2023-07-13T04:32:17;2.77;;;1.50;;
10511;SDS011;5304;48.604;2.096;2023-07-13T04:35:02;3.17;;;1.73;;
10511;SDS011;5304;48.604;2.096;2023-07-13T04:37:47;2.33;;;1.80;;
10511;SDS011;5304;48.604;2.096;2023-07-13T04:40:34;2.60;;;1.63;;
10511;SDS011;5304;48.604;2.096;2023-07-13T04:43:18;3.03;;;1.63;;
10511;SDS011;5304;48.604;2.096;2023-07-13T04:46:03;1.90;;;1.53;;
10511;SDS011;5304;48.604;2.096;2023-07-13T04:48:49;4.47;;;2.50;;
10511;SDS011;5304;48.604;2.096;2023-07-13T04:51:34;9.60;;;1.97;;
10511;SDS011;5304;48.604;2.096;2023-07-13T04:54:19;3.97;;;1.90;;
10511;SDS011;5304;48.604;2.096;2023-07-13T04:57:03;2.90;;;2.30;;
10511;SDS011;5304;48.604;2.096;2023-07-13T04:59:49;4.73;;;1.90;;
10511;SDS011;5304;48.604;2.096;2023-07-13T05:02:33;5.07;;;1.93;;
10511;SDS011;5304;48.604;2.096;2023-07-13T05:05:18;2.40;;;2.10;;
10511;SDS011;5304;48.604;2.096;2023-07-13T05:08:03;5.07;;;1.63;;
10511;SDS011;5304;48.604;2.096;2023-07-13T05:10:47;3.63;;;2.03;;
10511;SDS011;5304;48.604;2.096;2023-07-13T05:13:32;3.17;;;1.90;;
10511;SDS011;5304;48.604;2.096;2023-07-13T05:16:16;3.10;;;1.97;;
10511;SDS011;5304;48.604;2.096;2023-07-13T05:19:01;3.40;;;1.77;;
10511;SDS011;5304;48.604;2.096;2023-07-13T05:21:46;6.60;;;2.30;;
10511;SDS011;5304;48.604;2.096;2023-07-13T05:24:30;3.27;;;1.80;;
10511;SDS011;5304;48.604;2.096;2023-07-13T05:27:14;5.13;;;2.13;;
10511;SDS011;5304;48.604;2.096;2023-07-13T05:29:59;4.50;;;1.77;;
10511;SDS011;5304;48.604;2.096;2023-07-13T05:32:44;4.27;;;1.90;;
10511;SDS011;5304;48.604;2.096;2023-07-13T05:35:29;5.30;;;1.90;;
10511;SDS011;5304;48.604;2.096;2023-07-13T05:38:14;5.70;;;2.07;;
10511;SDS011;5304;48.604;2.096;2023-07-13T05:40:58;6.13;;;2.07;;
10511;SDS011;5304;48.604;2.096;2023-07-13T05:43:42;8.10;;;2.30;;
10511;SDS011;5304;48.604;2.096;2023-07-13T05:46:27;7.37;;;2.47;;
10511;SDS011;5304;48.604;2.096;2023-07-13T05:49:11;7.23;;;2.03;;
10511;SDS011;5304;48.604;2.096;2023-07-13T05:51:55;5.87;;;1.67;;
10511;SDS011;5304;48.604;2.096;2023-07-13T05:54:40;3.53;;;1.70;;
10511;SDS011;5304;48.604;2.096;2023-07-13T05:57:24;5.33;;;2.27;;
10511;SDS011;5304;48.604;2.096;2023-07-13T06:00:09;3.90;;;1.93;;
10511;SDS011;5304;48.604;2.096;2023-07-13T06:02:53;4.07;;;1.77;;
10511;SDS011;5304;48.604;2.096;2023-07-13T06:05:39;3.87;;;1.67;;
10511;SDS011;5304;48.604;2.096;2023-07-13T06:08:24;6.87;;;1.60;;
10511;SDS011;5304;48.604;2.096;2023-07-13T06:11:15;5.37;;;2.23;;
10511;SDS011;5304;48.604;2.096;2023-07-13T06:14:02;8.77;;;2.13;;
10511;SDS011;5304;48.604;2.096;2023-07-13T06:16:47;6.07;;;1.83;;
10511;SDS011;5304;48.604;2.096;2023-07-13T06:19:32;3.87;;;2.40;;
10511;SDS011;5304;48.604;2.096;2023-07-13T06:22:16;4.43;;;1.80;;
10511;SDS011;5304;48.604;2.096;2023-07-13T06:25:00;5.50;;;2.10;;
10511;SDS011;5304;48.604;2.096;2023-07-13T06:27:45;6.77;;;2.00;;
10511;SDS011;5304;48.604;2.096;2023-07-13T06:30:29;7.60;;;2.20;;
10511;SDS011;5304;48.604;2.096;2023-07-13T06:33:13;3.27;;;1.50;;
10511;SDS011;5304;48.604;2.096;2023-07-13T06:35:58;11.07;;;2.20;;
10511;SDS011;5304;48.604;2.096;2023-07-13T06:38:42;4.00;;;1.80;;
10511;SDS011;5304;48.604;2.096;2023-07-13T06:41:26;6.33;;;1.90;;
10511;SDS011;5304;48.604;2.096;2023-07-13T06:44:10;6.60;;;2.00;;
10511;SDS011;5304;48.604;2.096;2023-07-13T06:46:55;6.07;;;1.67;;
10511;SDS011;5304;48.604;2.096;2023-07-13T06:49:39;3.83;;;2.10;;
10511;SDS011;5304;48.604;2.096;2023-07-13T06:52:24;6.10;;;2.00;;
10511;SDS011;5304;48.604;2.096;2023-07-13T06:55:08;7.50;;;2.10;;
10511;SDS011;5304;48.604;2.096;2023-07-13T06:57:52;7.73;;;2.10;;
10511;SDS011;5304;48.604;2.096;2023-07-13T07:00:37;16.83;;;2.30;;
10511;SDS011;5304;48.604;2.096;2023-07-13T07:03:23;6.27;;;2.00;;
10511;SDS011;5304;48.604;2.096;2023-07-13T07:06:12;7.68;;;1.60;;
10511;SDS011;5304;48.604;2.096;2023-07-13T07:09:01;11.30;;;2.17;;
10511;SDS011;5304;48.604;2.096;2023-07-13T07:11:45;28.10;;;2.78;;
10511;SDS011;5304;48.604;2.096;2023-07-13T07:14:30;88.15;;;5.68;;
10511;SDS011;5304;48.604;2.096;2023-07-13T07:17:15;6.70;;;1.70;;
10511;SDS011;5304;48.604;2.096;2023-07-13T07:19:59;4.78;;;2.05;;
10511;SDS011;5304;48.604;2.096;2023-07-13T07:22:43;4.30;;;2.45;;
10511;SDS011;5304;48.604;2.096;2023-07-13T07:25:27;7.45;;;1.90;;
10511;SDS011;5304;48.604;2.096;2023-07-13T07:28:15;7.90;;;2.15;;
10511;SDS011;5304;48.604;2.096;2023-07-13T07:31:03;5.07;;;1.90;;
10511;SDS011;5304;48.604;2.096;2023-07-13T07:33:47;3.17;;;1.70;;
10511;SDS011;5304;48.604;2.096;2023-07-13T07:36:33;5.38;;;1.92;;
10511;SDS011;5304;48.604;2.096;2023-07-13T07:39:18;5.40;;;1.90;;
10511;SDS011;5304;48.604;2.096;2023-07-13T07:42:02;5.05;;;1.65;;
10511;SDS011;5304;48.604;2.096;2023-07-13T07:44:47;9.38;;;2.05;;
10511;SDS011;5304;48.604;2.096;2023-07-13T07:47:31;6.53;;;1.75;;
10511;SDS011;5304;48.604;2.096;2023-07-13T07:50:15;4.80;;;1.90;;
10511;SDS011;5304;48.604;2.096;2023-07-13T07:53:00;4.85;;;1.67;;
10511;SDS011;5304;48.604;2.096;2023-07-13T07:55:45;4.15;;;1.80;;
10511;SDS011;5304;48.604;2.096;2023-07-13T07:58:31;7.93;;;2.17;;
10511;SDS011;5304;48.604;2.096;2023-07-13T08:01:15;5.68;;;1.70;;
10511;SDS011;5304;48.604;2.096;2023-07-13T08:04:00;5.53;;;1.80;;
10511;SDS011;5304;48.604;2.096;2023-07-13T08:06:44;6.35;;;1.70;;
10511;SDS011;5304;48.604;2.096;2023-07-13T08:09:28;3.20;;;1.50;;
10511;SDS011;5304;48.604;2.096;2023-07-13T08:12:13;4.50;;;1.58;;
10511;SDS011;5304;48.604;2.096;2023-07-13T08:14:57;3.55;;;1.55;;
10511;SDS011;5304;48.604;2.096;2023-07-13T08:17:44;4.13;;;1.90;;
10511;SDS011;5304;48.604;2.096;2023-07-13T08:20:28;6.65;;;1.88;;
10511;SDS011;5304;48.604;2.096;2023-07-13T08:23:12;5.00;;;1.77;;
10511;SDS011;5304;48.604;2.096;2023-07-13T08:25:57;3.75;;;1.95;;
10511;SDS011;5304;48.604;2.096;2023-07-13T08:28:41;5.20;;;1.98;;
10511;SDS011;5304;48.604;2.096;2023-07-13T08:31:25;2.90;;;1.60;;
10511;SDS011;5304;48.604;2.096;2023-07-13T08:34:10;6.05;;;1.80;;
10511;SDS011;5304;48.604;2.096;2023-07-13T08:36:54;2.20;;;1.35;;
10511;SDS011;5304;48.604;2.096;2023-07-13T08:39:38;2.20;;;1.50;;
10511;SDS011;5304;48.604;2.096;2023-07-13T08:45:47;5.57;;;1.80;;
10511;SDS011;5304;48.604;2.096;2023-07-13T08:48:38;4.47;;;1.63;;
10511;SDS011;5304;48.604;2.096;2023-07-13T08:51:43;5.30;;;1.65;;
10511;SDS011;5304;48.604;2.096;2023-07-13T08:54:32;2.25;;;1.30;;
10511;SDS011;5304;48.604;2.096;2023-07-13T08:57:21;4.88;;;1.60;;
10511;SDS011;5304;48.604;2.096;2023-07-13T09:00:14;4.00;;;1.52;;
10511;SDS011;5304;48.604;2.096;2023-07-13T09:02:59;3.38;;;1.58;;
10511;SDS011;5304;48.604;2.096;2023-07-13T09:05:44;1.65;;;1.50;;
10511;SDS011;5304;48.604;2.096;2023-07-13T09:14:45;5.22;;;1.60;;
10511;SDS011;5304;48.604;2.096;2023-07-13T09:17:36;4.00;;;1.88;;
10511;SDS011;5304;48.604;2.096;2023-07-13T09:20:37;3.35;;;1.40;;
10511;SDS011;5304;48.604;2.096;2023-07-13T09:23:36;4.00;;;1.45;;
10511;SDS011;5304;48.604;2.096;2023-07-13T09:26:22;3.85;;;1.30;;
10511;SDS011;5304;48.604;2.096;2023-07-13T09:29:24;3.53;;;1.40;;
10511;SDS011;5304;48.604;2.096;2023-07-13T09:32:12;4.72;;;1.50;;
10511;SDS011;5304;48.604;2.096;2023-07-13T09:34:58;3.17;;;1.45;;
10511;SDS011;5304;48.604;2.096;2023-07-13T09:37:47;3.17;;;1.30;;
10511;SDS011;5304;48.604;2.096;2023-07-13T09:44:01;6.95;;;1.48;;
10511;SDS011;5304;48.604;2.096;2023-07-13T09:46:46;2.25;;;1.23;;
10511;SDS011;5304;48.604;2.096;2023-07-13T09:49:36;4.28;;;1.30;;
10511;SDS011;5304;48.604;2.096;2023-07-13T09:52:21;1.58;;;1.25;;
10511;SDS011;5304;48.604;2.096;2023-07-13T09:55:12;4.30;;;1.60;;
10511;SDS011;5304;48.604;2.096;2023-07-13T09:58:18;3.75;;;1.50;;
10511;SDS011;5304;48.604;2.096;2023-07-13T10:01:06;5.93;;;1.55;;
10511;SDS011;5304;48.604;2.096;2023-07-13T10:03:53;3.53;;;1.50;;
10511;SDS011;5304;48.604;2.096;2023-07-13T10:06:38;4.80;;;1.40;;
10511;SDS011;5304;48.604;2.096;2023-07-13T10:09:26;5.90;;;2.08;;
10511;SDS011;5304;48.604;2.096;2023-07-13T10:12:14;7.30;;;2.58;;
10511;SDS011;5304;48.604;2.096;2023-07-13T10:14:59;4.10;;;2.00;;
10511;SDS011;5304;48.604;2.096;2023-07-13T10:17:45;5.75;;;1.30;;
10511;SDS011;5304;48.604;2.096;2023-07-13T10:20:30;3.15;;;1.10;;
10511;SDS011;5304;48.604;2.096;2023-07-13T10:23:17;3.30;;;1.40;;
10511;SDS011;5304;48.604;2.096;2023-07-13T10:26:07;2.17;;;1.33;;
10511;SDS011;5304;48.604;2.096;2023-07-13T10:29:09;2.97;;;1.67;;
10511;SDS011;5304;48.604;2.096;2023-07-13T10:31:57;2.25;;;1.25;;
10511;SDS011;5304;48.604;2.096;2023-07-13T10:34:42;2.13;;;1.35;;
10511;SDS011;5304;48.604;2.096;2023-07-13T10:37:31;2.25;;;1.30;;
10511;SDS011;5304;48.604;2.096;2023-07-13T10:40:26;2.85;;;1.30;;
10511;SDS011;5304;48.604;2.096;2023-07-13T10:43:18;2.03;;;1.10;;
10511;SDS011;5304;48.604;2.096;2023-07-13T10:46:11;1.85;;;1.30;;
10511;SDS011;5304;48.604;2.096;2023-07-13T10:48:58;5.72;;;1.50;;
10511;SDS011;5304;48.604;2.096;2023-07-13T10:51:50;2.97;;;1.45;;
10511;SDS011;5304;48.604;2.096;2023-07-13T10:54:35;4.78;;;1.38;;
10511;SDS011;5304;48.604;2.096;2023-07-13T10:57:21;4.53;;;1.30;;
10511;SDS011;5304;48.604;2.096;2023-07-13T11:00:13;3.70;;;1.38;;
10511;SDS011;5304;48.604;2.096;2023-07-13T11:03:00;3.85;;;1.40;;
10511;SDS011;5304;48.604;2.096;2023-07-13T11:05:47;4.03;;;1.42;;
10511;SDS011;5304;48.604;2.096;2023-07-13T11:08:35;2.83;;;1.40;;
10511;SDS011;5304;48.604;2.096;2023-07-13T11:17:37;2.38;;;1.10;;
10511;SDS011;5304;48.604;2.096;2023-07-13T11:20:41;2.25;;;1.20;;
10511;SDS011;5304;48.604;2.096;2023-07-13T11:23:27;3.55;;;1.17;;
10511;SDS011;5304;48.604;2.096;2023-07-13T11:29:32;2.30;;;1.33;;
10511;SDS011;5304;48.604;2.096;2023-07-13T11:32:41;7.35;;;1.40;;
10511;SDS011;5304;48.604;2.096;2023-07-13T11:35:25;1.60;;;1.30;;
10511;SDS011;5304;48.604;2.096;2023-07-13T11:38:12;1.77;;;1.25;;
10511;SDS011;5304;48.604;2.096;2023-07-13T11:41:20;3.50;;;1.40;;
10511;SDS011;5304;48.604;2.096;2023-07-13T11:44:10;2.70;;;1.42;;
10511;SDS011;5304;48.604;2.096;2023-07-13T11:46:58;3.13;;;1.58;;
10511;SDS011;5304;48.604;2.096;2023-07-13T11:49:54;1.88;;;1.20;;
10511;SDS011;5304;48.604;2.096;2023-07-13T11:52:43;2.67;;;1.60;;
10511;SDS011;5304;48.604;2.096;2023-07-13T11:55:27;5.00;;;1.60;;
10511;SDS011;5304;48.604;2.096;2023-07-13T11:58:14;3.97;;;1.35;;
10511;SDS011;5304;48.604;2.096;2023-07-13T12:01:04;3.30;;;1.30;;
10511;SDS011;5304;48.604;2.096;2023-07-13T12:03:49;2.83;;;1.38;;
10511;SDS011;5304;48.604;2.096;2023-07-13T12:06:34;1.90;;;1.30;;
10511;SDS011;5304;48.604;2.096;2023-07-13T12:09:23;1.88;;;1.10;;
10511;SDS011;5304;48.604;2.096;2023-07-13T12:12:11;4.45;;;1.60;;
10511;SDS011;5304;48.604;2.096;2023-07-13T12:14:57;1.75;;;1.10;;
10511;SDS011;5304;48.604;2.096;2023-07-13T12:17:41;1.70;;;1.30;;
10511;SDS011;5304;48.604;2.096;2023-07-13T12:20:27;2.08;;;1.05;;
10511;SDS011;5304;48.604;2.096;2023-07-13T12:23:23;1.65;;;1.00;;
10511;SDS011;5304;48.604;2.096;2023-07-13T12:26:09;4.22;;;1.48;;
10511;SDS011;5304;48.604;2.096;2023-07-13T12:28:59;2.88;;;1.23;;
10511;SDS011;5304;48.604;2.096;2023-07-13T12:31:46;5.78;;;1.35;;
10511;SDS011;5304;48.604;2.096;2023-07-13T12:34:32;4.53;;;1.30;;
10511;SDS011;5304;48.604;2.096;2023-07-13T12:37:37;2.38;;;1.30;;
10511;SDS011;5304;48.604;2.096;2023-07-13T12:40:26;2.47;;;1.15;;
10511;SDS011;5304;48.604;2.096;2023-07-13T12:43:15;2.22;;;1.20;;
10511;SDS011;5304;48.604;2.096;2023-07-13T12:46:01;2.60;;;1.10;;
10511;SDS011;5304;48.604;2.096;2023-07-13T12:48:49;2.42;;;1.50;;
10511;SDS011;5304;48.604;2.096;2023-07-13T12:51:37;2.92;;;1.42;;
10511;SDS011;5304;48.604;2.096;2023-07-13T12:54:22;1.83;;;1.33;;
10511;SDS011;5304;48.604;2.096;2023-07-13T12:57:08;4.30;;;1.27;;
10511;SDS011;5304;48.604;2.096;2023-07-13T12:59:59;3.83;;;1.45;;
10511;SDS011;5304;48.604;2.096;2023-07-13T13:02:49;2.83;;;1.27;;
10511;SDS011;5304;48.604;2.096;2023-07-13T13:05:35;2.75;;;1.33;;
10511;SDS011;5304;48.604;2.096;2023-07-13T13:08:21;2.47;;;1.27;;
10511;SDS011;5304;48.604;2.096;2023-07-13T13:11:05;2.78;;;1.27;;
10511;SDS011;5304;48.604;2.096;2023-07-13T13:13:49;1.30;;;1.00;;
10511;SDS011;5304;48.604;2.096;2023-07-13T13:16:52;2.78;;;1.20;;
10511;SDS011;5304;48.604;2.096;2023-07-13T13:19:37;2.72;;;1.15;;
10511;SDS011;5304;48.604;2.096;2023-07-13T13:22:21;2.25;;;1.33;;
10511;SDS011;5304;48.604;2.096;2023-07-13T13:25:07;2.35;;;1.27;;
10511;SDS011;5304;48.604;2.096;2023-07-13T13:27:56;2.72;;;1.45;;
10511;SDS011;5304;48.604;2.096;2023-07-13T13:30:40;2.85;;;1.50;;
10511;SDS011;5304;48.604;2.096;2023-07-13T13:33:24;1.58;;;1.40;;
10511;SDS011;5304;48.604;2.096;2023-07-13T13:36:15;2.33;;;1.23;;
10511;SDS011;5304;48.604;2.096;2023-07-13T13:39:05;2.47;;;1.10;;
10511;SDS011;5304;48.604;2.096;2023-07-13T13:42:08;1.50;;;1.10;;
10511;SDS011;5304;48.604;2.096;2023-07-13T13:44:53;1.50;;;1.20;;
10511;SDS011;5304;48.604;2.096;2023-07-13T13:47:40;3.33;;;1.60;;
10511;SDS011;5304;48.604;2.096;2023-07-13T13:50:25;1.95;;;1.42;;
10511;SDS011;5304;48.604;2.096;2023-07-13T13:53:12;1.90;;;1.30;;
10511;SDS011;5304;48.604;2.096;2023-07-13T13:55:57;1.55;;;1.30;;
10511;SDS011;5304;48.604;2.096;2023-07-13T13:58:43;2.42;;;1.45;;
10511;SDS011;5304;48.604;2.096;2023-07-13T14:01:27;3.75;;;1.65;;
10511;SDS011;5304;48.604;2.096;2023-07-13T14:04:15;1.92;;;1.30;;
10511;SDS011;5304;48.604;2.096;2023-07-13T14:07:01;1.83;;;1.40;;
10511;SDS011;5304;48.604;2.096;2023-07-13T14:09:46;2.03;;;1.30;;
10511;SDS011;5304;48.604;2.096;2023-07-13T14:12:30;2.45;;;1.33;;
10511;SDS011;5304;48.604;2.096;2023-07-13T14:15:23;1.65;;;1.35;;
10511;SDS011;5304;48.604;2.096;2023-07-13T14:18:12;1.90;;;1.45;;
10511;SDS011;5304;48.604;2.096;2023-07-13T14:21:01;2.95;;;1.50;;
10511;SDS011;5304;48.604;2.096;2023-07-13T14:23:45;3.13;;;1.30;;
10511;SDS011;5304;48.604;2.096;2023-07-13T14:26:32;2.63;;;1.60;;
10511;SDS011;5304;48.604;2.096;2023-07-13T14:29:21;2.00;;;1.70;;
10511;SDS011;5304;48.604;2.096;2023-07-13T14:32:05;1.98;;;1.20;;
10511;SDS011;5304;48.604;2.096;2023-07-13T14:34:55;5.22;;;1.58;;
10511;SDS011;5304;48.604;2.096;2023-07-13T14:37:41;2.60;;;1.70;;
10511;SDS011;5304;48.604;2.096;2023-07-13T14:40:28;2.33;;;1.60;;
10511;SDS011;5304;48.604;2.096;2023-07-13T14:43:14;2.22;;;1.52;;
10511;SDS011;5304;48.604;2.096;2023-07-13T14:46:00;2.47;;;1.55;;
10511;SDS011;5304;48.604;2.096;2023-07-13T14:48:44;2.53;;;1.65;;
10511;SDS011;5304;48.604;2.096;2023-07-13T14:51:28;3.40;;;1.80;;
10511;SDS011;5304;48.604;2.096;2023-07-13T14:54:14;1.85;;;1.50;;
10511;SDS011;5304;48.604;2.096;2023-07-13T14:56:58;4.07;;;1.60;;
10511;SDS011;5304;48.604;2.096;2023-07-13T14:59:42;2.50;;;1.42;;
10511;SDS011;5304;48.604;2.096;2023-07-13T15:02:31;1.80;;;1.40;;
10511;SDS011;5304;48.604;2.096;2023-07-13T15:05:19;2.15;;;1.50;;
10511;SDS011;5304;48.604;2.096;2023-07-13T15:08:07;3.40;;;1.50;;
10511;SDS011;5304;48.604;2.096;2023-07-13T15:10:54;1.92;;;1.65;;
10511;SDS011;5304;48.604;2.096;2023-07-13T15:13:43;2.90;;;1.92;;
10511;SDS011;5304;48.604;2.096;2023-07-13T15:16:28;3.60;;;1.77;;
10511;SDS011;5304;48.604;2.096;2023-07-13T15:19:13;3.67;;;1.77;;
10511;SDS011;5304;48.604;2.096;2023-07-13T15:21:57;2.65;;;1.50;;
10511;SDS011;5304;48.604;2.096;2023-07-13T15:24:41;3.15;;;1.67;;
10511;SDS011;5304;48.604;2.096;2023-07-13T15:27:26;2.00;;;1.65;;
10511;SDS011;5304;48.604;2.096;2023-07-13T15:30:10;3.53;;;1.65;;
10511;SDS011;5304;48.604;2.096;2023-07-13T15:33:00;3.60;;;1.52;;
10511;SDS011;5304;48.604;2.096;2023-07-13T15:35:55;3.28;;;1.70;;
10511;SDS011;5304;48.604;2.096;2023-07-13T15:38:42;3.20;;;1.80;;
10511;SDS011;5304;48.604;2.096;2023-07-13T15:41:28;5.15;;;1.67;;
10511;SDS011;5304;48.604;2.096;2023-07-13T15:44:23;2.97;;;1.70;;
10511;SDS011;5304;48.604;2.096;2023-07-13T15:47:11;2.83;;;1.65;;
10511;SDS011;5304;48.604;2.096;2023-07-13T15:49:56;1.83;;;1.67;;
10511;SDS011;5304;48.604;2.096;2023-07-13T15:52:43;5.95;;;1.50;;
10511;SDS011;5304;48.604;2.096;2023-07-13T15:55:31;2.65;;;1.50;;
10511;SDS011;5304;48.604;2.096;2023-07-13T15:58:16;2.08;;;1.70;;
10511;SDS011;5304;48.604;2.096;2023-07-13T16:01:01;4.05;;;1.90;;
10511;SDS011;5304;48.604;2.096;2023-07-13T16:03:46;4.15;;;2.08;;
10511;SDS011;5304;48.604;2.096;2023-07-13T16:06:32;4.18;;;1.77;;
10511;SDS011;5304;48.604;2.096;2023-07-13T16:09:20;2.88;;;1.70;;
10511;SDS011;5304;48.604;2.096;2023-07-13T16:12:10;3.47;;;1.70;;
10511;SDS011;5304;48.604;2.096;2023-07-13T16:14:55;8.70;;;1.90;;
10511;SDS011;5304;48.604;2.096;2023-07-13T16:17:39;3.35;;;1.90;;
10511;SDS011;5304;48.604;2.096;2023-07-13T16:20:24;2.70;;;1.77;;
10511;SDS011;5304;48.604;2.096;2023-07-13T16:23:08;3.10;;;1.85;;
10511;SDS011;5304;48.604;2.096;2023-07-13T16:25:56;3.30;;;1.70;;
10511;SDS011;5304;48.604;2.096;2023-07-13T16:28:40;4.07;;;1.77;;
10511;SDS011;5304;48.604;2.096;2023-07-13T16:31:30;4.68;;;2.10;;
10511;SDS011;5304;48.604;2.096;2023-07-13T16:34:18;5.07;;;1.95;;
10511;SDS011;5304;48.604;2.096;2023-07-13T16:37:03;4.10;;;1.90;;
10511;SDS011;5304;48.604;2.096;2023-07-13T16:39:56;2.50;;;1.80;;
10511;SDS011;5304;48.604;2.096;2023-07-13T16:42:44;2.35;;;1.73;;
10511;SDS011;5304;48.604;2.096;2023-07-13T16:45:29;5.88;;;2.25;;
10511;SDS011;5304;48.604;2.096;2023-07-13T16:48:19;3.78;;;2.22;;
10511;SDS011;5304;48.604;2.096;2023-07-13T16:51:05;3.63;;;2.10;;
10511;SDS011;5304;48.604;2.096;2023-07-13T16:53:50;5.43;;;2.25;;
10511;SDS011;5304;48.604;2.096;2023-07-13T16:56:34;3.03;;;2.17;;
10511;SDS011;5304;48.604;2.096;2023-07-13T16:59:19;4.88;;;2.20;;
10511;SDS011;5304;48.604;2.096;2023-07-13T17:02:13;4.50;;;1.90;;
10511;SDS011;5304;48.604;2.096;2023-07-13T17:05:10;3.80;;;2.05;;
10511;SDS011;5304;48.604;2.096;2023-07-13T17:07:58;5.47;;;2.20;;
10511;SDS011;5304;48.604;2.096;2023-07-13T17:10:43;3.50;;;2.03;;
10511;SDS011;5304;48.604;2.096;2023-07-13T17:13:29;2.78;;;1.95;;
10511;SDS011;5304;48.604;2.096;2023-07-13T17:16:14;5.05;;;1.77;;
10511;SDS011;5304;48.604;2.096;2023-07-13T17:18:59;5.57;;;2.00;;
10511;SDS011;5304;48.604;2.096;2023-07-13T17:21:44;6.38;;;2.30;;
10511;SDS011;5304;48.604;2.096;2023-07-13T17:24:31;2.45;;;1.60;;
10511;SDS011;5304;48.604;2.096;2023-07-13T17:27:18;4.13;;;1.92;;
10511;SDS011;5304;48.604;2.096;2023-07-13T17:30:03;4.00;;;2.45;;
10511;SDS011;5304;48.604;2.096;2023-07-13T17:32:48;2.22;;;1.80;;
10511;SDS011;5304;48.604;2.096;2023-07-13T17:35:35;4.60;;;1.98;;
10511;SDS011;5304;48.604;2.096;2023-07-13T17:38:19;4.07;;;2.28;;
10511;SDS011;5304;48.604;2.096;2023-07-13T17:41:04;4.63;;;2.20;;
10511;SDS011;5304;48.604;2.096;2023-07-13T17:43:48;3.90;;;2.30;;
10511;SDS011;5304;48.604;2.096;2023-07-13T17:46:32;4.43;;;2.40;;
10511;SDS011;5304;48.604;2.096;2023-07-13T17:49:19;5.28;;;2.38;;
10511;SDS011;5304;48.604;2.096;2023-07-13T17:52:13;4.00;;;2.53;;
10511;SDS011;5304;48.604;2.096;2023-07-13T17:54:59;4.88;;;2.30;;
10511;SDS011;5304;48.604;2.096;2023-07-13T17:57:46;3.30;;;2.47;;
10511;SDS011;5304;48.604;2.096;2023-07-13T18:00:36;3.28;;;2.38;;
10511;SDS011;5304;48.604;2.096;2023-07-13T18:03:26;5.13;;;2.47;;
10511;SDS011;5304;48.604;2.096;2023-07-13T18:06:16;4.80;;;2.45;;
10511;SDS011;5304;48.604;2.096;2023-07-13T18:09:03;3.40;;;2.13;;
10511;SDS011;5304;48.604;2.096;2023-07-13T18:11:57;4.22;;;2.25;;
10511;SDS011;5304;48.604;2.096;2023-07-13T18:14:42;3.72;;;2.17;;
10511;SDS011;5304;48.604;2.096;2023-07-13T18:17:26;5.57;;;2.72;;
10511;SDS011;5304;48.604;2.096;2023-07-13T18:20:10;6.88;;;2.30;;
10511;SDS011;5304;48.604;2.096;2023-07-13T18:23:00;3.75;;;2.42;;
10511;SDS011;5304;48.604;2.096;2023-07-13T18:25:46;8.70;;;2.28;;
10511;SDS011;5304;48.604;2.096;2023-07-13T18:28:32;14.20;;;2.40;;
10511;SDS011;5304;48.604;2.096;2023-07-13T18:31:17;4.40;;;2.40;;
10511;SDS011;5304;48.604;2.096;2023-07-13T18:34:04;4.55;;;2.53;;
10511;SDS011;5304;48.604;2.096;2023-07-13T18:36:50;4.97;;;2.45;;
10511;SDS011;5304;48.604;2.096;2023-07-13T18:39:36;6.20;;;3.03;;
10511;SDS011;5304;48.604;2.096;2023-07-13T18:42:20;4.15;;;2.42;;
10511;SDS011;5304;48.604;2.096;2023-07-13T18:45:07;3.55;;;1.92;;
10511;SDS011;5304;48.604;2.096;2023-07-13T18:47:56;3.83;;;2.40;;
10511;SDS011;5304;48.604;2.096;2023-07-13T18:50:42;4.45;;;2.67;;
10511;SDS011;5304;48.604;2.096;2023-07-13T18:53:27;4.05;;;2.30;;
10511;SDS011;5304;48.604;2.096;2023-07-13T18:56:11;5.65;;;2.28;;
10511;SDS011;5304;48.604;2.096;2023-07-13T18:58:55;5.10;;;2.53;;
10511;SDS011;5304;48.604;2.096;2023-07-13T19:01:40;5.05;;;1.90;;
10511;SDS011;5304;48.604;2.096;2023-07-13T19:04:28;4.57;;;2.28;;
10511;SDS011;5304;48.604;2.096;2023-07-13T19:07:14;3.22;;;2.30;;
10511;SDS011;5304;48.604;2.096;2023-07-13T19:09:58;3.95;;;2.10;;
10511;SDS011;5304;48.604;2.096;2023-07-13T19:12:44;4.32;;;2.70;;
10511;SDS011;5304;48.604;2.096;2023-07-13T19:15:31;5.65;;;3.28;;
10511;SDS011;5304;48.604;2.096;2023-07-13T19:18:18;4.45;;;2.75;;
10511;SDS011;5304;48.604;2.096;2023-07-13T19:21:06;6.20;;;2.75;;
10511;SDS011;5304;48.604;2.096;2023-07-13T19:24:20;4.63;;;2.75;;
10511;SDS011;5304;48.604;2.096;2023-07-13T19:27:10;2.88;;;2.30;;
10511;SDS011;5304;48.604;2.096;2023-07-13T19:29:56;4.85;;;2.20;;
10511;SDS011;5304;48.604;2.096;2023-07-13T19:32:40;4.72;;;2.20;;
10511;SDS011;5304;48.604;2.096;2023-07-13T19:35:26;7.05;;;2.83;;
10511;SDS011;5304;48.604;2.096;2023-07-13T19:38:15;5.90;;;3.33;;
10511;SDS011;5304;48.604;2.096;2023-07-13T19:41:02;4.47;;;3.53;;
10511;SDS011;5304;48.604;2.096;2023-07-13T19:43:50;6.18;;;3.58;;
10511;SDS011;5304;48.604;2.096;2023-07-13T19:46:35;7.95;;;3.90;;
10511;SDS011;5304;48.604;2.096;2023-07-13T19:49:20;3.97;;;3.20;;
10511;SDS011;5304;48.604;2.096;2023-07-13T19:52:15;4.53;;;3.13;;
10511;SDS011;5304;48.604;2.096;2023-07-13T19:55:01;5.22;;;3.20;;
10511;SDS011;5304;48.604;2.096;2023-07-13T19:57:52;7.00;;;3.15;;
10511;SDS011;5304;48.604;2.096;2023-07-13T20:00:36;6.28;;;3.20;;
10511;SDS011;5304;48.604;2.096;2023-07-13T20:03:22;7.07;;;2.92;;
10511;SDS011;5304;48.604;2.096;2023-07-13T20:06:14;3.55;;;2.78;;
10511;SDS011;5304;48.604;2.096;2023-07-13T20:09:18;4.90;;;2.83;;
10511;SDS011;5304;48.604;2.096;2023-07-13T20:12:08;4.22;;;3.00;;
10511;SDS011;5304;48.604;2.096;2023-07-13T20:14:57;4.20;;;2.60;;
10511;SDS011;5304;48.604;2.096;2023-07-13T20:17:42;7.32;;;3.13;;
10511;SDS011;5304;48.604;2.096;2023-07-13T20:20:34;9.48;;;3.08;;
10511;SDS011;5304;48.604;2.096;2023-07-13T20:23:23;4.72;;;3.00;;
10511;SDS011;5304;48.604;2.096;2023-07-13T20:26:09;4.50;;;2.75;;
10511;SDS011;5304;48.604;2.096;2023-07-13T20:28:54;4.13;;;2.47;;
10511;SDS011;5304;48.604;2.096;2023-07-13T20:31:38;6.03;;;2.65;;
10511;SDS011;5304;48.604;2.096;2023-07-13T20:34:25;5.37;;;2.63;;
10511;SDS011;5304;48.604;2.096;2023-07-13T20:37:31;5.70;;;2.50;;
10511;SDS011;5304;48.604;2.096;2023-07-13T20:40:22;3.20;;;2.50;;
10511;SDS011;5304;48.604;2.096;2023-07-13T20:43:09;4.43;;;2.70;;
